sensor_id;sensor_type;location;lat;lon;timestamp;temperature;humidity
26186;DHT22;20067;48.764;9.176;2023-06-26T00:00:50;22.20;69.90
26186;DHT22;20067;48.764;9.176;2023-06-26T00:03:15;22.00;70.00
26186;DHT22;20067;48.764;9.176;2023-06-26T00:05:41;22.00;70.50
26186;DHT22;20067;48.764;9.176;2023-06-26T00:08:08;22.00;70.10
26186;DHT22;20067;48.764;9.176;2023-06-26T00:10:34;22.20;69.80
26186;DHT22;20067;48.764;9.176;2023-06-26T00:13:00;21.90;70.40
26186;DHT22;20067;48.764;9.176;2023-06-26T00:15:27;22.20;70.60
26186;DHT22;20067;48.764;9.176;2023-06-26T00:17:57;22.00;70.50
26186;DHT22;20067;48.764;9.176;2023-06-26T00:20:23;22.30;70.00
26186;DHT22;20067;48.764;9.176;2023-06-26T00:22:50;22.10;70.40
26186;DHT22;20067;48.764;9.176;2023-06-26T00:25:16;22.30;70.20
26186;DHT22;20067;48.764;9.176;2023-06-26T00:27:42;21.90;70.60
26186;DHT22;20067;48.764;9.176;2023-06-26T00:30:08;22.00;71.10
26186;DHT22;20067;48.764;9.176;2023-06-26T00:32:34;22.30;70.00
26186;DHT22;20067;48.764;9.176;2023-06-26T00:34:59;22.20;70.20
26186;DHT22;20067;48.764;9.176;2023-06-26T00:37:25;22.10;70.10
26186;DHT22;20067;48.764;9.176;2023-06-26T00:39:51;21.80;71.00
26186;DHT22;20067;48.764;9.176;2023-06-26T00:42:17;22.00;71.10
26186;DHT22;20067;48.764;9.176;2023-06-26T00:44:43;22.00;70.70
26186;DHT22;20067;48.764;9.176;2023-06-26T00:47:11;22.10;70.80
26186;DHT22;20067;48.764;9.176;2023-06-26T00:49:39;22.30;70.20
26186;DHT22;20067;48.764;9.176;2023-06-26T00:52:06;22.10;70.80
26186;DHT22;20067;48.764;9.176;2023-06-26T00:54:32;22.40;69.90
26186;DHT22;20067;48.764;9.176;2023-06-26T00:56:57;22.20;69.90
26186;DHT22;20067;48.764;9.176;2023-06-26T00:59:23;22.10;70.20
26186;DHT22;20067;48.764;9.176;2023-06-26T01:01:49;22.30;70.20
26186;DHT22;20067;48.764;9.176;2023-06-26T01:04:15;22.40;69.80
26186;DHT22;20067;48.764;9.176;2023-06-26T01:06:46;22.30;69.60
26186;DHT22;20067;48.764;9.176;2023-06-26T01:09:16;22.30;70.00
26186;DHT22;20067;48.764;9.176;2023-06-26T01:11:42;22.20;70.50
26186;DHT22;20067;48.764;9.176;2023-06-26T01:14:08;22.30;69.40
26186;DHT22;20067;48.764;9.176;2023-06-26T01:16:35;22.10;69.80
26186;DHT22;20067;48.764;9.176;2023-06-26T01:19:01;22.30;70.00
26186;DHT22;20067;48.764;9.176;2023-06-26T01:21:28;22.10;70.00
26186;DHT22;20067;48.764;9.176;2023-06-26T01:26:31;22.30;69.50
26186;DHT22;20067;48.764;9.176;2023-06-26T01:29:02;22.40;69.30
26186;DHT22;20067;48.764;9.176;2023-06-26T01:31:30;22.30;70.20
26186;DHT22;20067;48.764;9.176;2023-06-26T01:33:58;22.20;69.80
26186;DHT22;20067;48.764;9.176;2023-06-26T01:36:24;22.30;69.80
26186;DHT22;20067;48.764;9.176;2023-06-26T01:38:50;22.40;69.20
26186;DHT22;20067;48.764;9.176;2023-06-26T01:41:17;22.10;69.70
26186;DHT22;20067;48.764;9.176;2023-06-26T01:44:11;22.10;69.90
26186;DHT22;20067;48.764;9.176;2023-06-26T01:46:39;22.00;70.20
26186;DHT22;20067;48.764;9.176;2023-06-26T01:49:08;22.00;70.00
26186;DHT22;20067;48.764;9.176;2023-06-26T01:51:41;22.00;70.20
26186;DHT22;20067;48.764;9.176;2023-06-26T01:54:14;21.90;70.60
26186;DHT22;20067;48.764;9.176;2023-06-26T01:56:44;21.90;70.50
26186;DHT22;20067;48.764;9.176;2023-06-26T01:59:12;21.80;70.60
26186;DHT22;20067;48.764;9.176;2023-06-26T02:01:39;21.90;70.70
26186;DHT22;20067;48.764;9.176;2023-06-26T02:04:05;21.70;70.80
26186;DHT22;20067;48.764;9.176;2023-06-26T02:06:31;21.60;71.30
26186;DHT22;20067;48.764;9.176;2023-06-26T02:08:56;21.60;71.70
26186;DHT22;20067;48.764;9.176;2023-06-26T02:11:23;21.70;71.70
26186;DHT22;20067;48.764;9.176;2023-06-26T02:13:48;21.70;71.20
26186;DHT22;20067;48.764;9.176;2023-06-26T02:16:14;21.70;71.00
26186;DHT22;20067;48.764;9.176;2023-06-26T02:18:40;21.60;71.60
26186;DHT22;20067;48.764;9.176;2023-06-26T02:21:06;21.50;71.60
26186;DHT22;20067;48.764;9.176;2023-06-26T02:23:32;21.50;71.80
26186;DHT22;20067;48.764;9.176;2023-06-26T02:25:58;21.50;71.80
26186;DHT22;20067;48.764;9.176;2023-06-26T02:28:24;21.50;72.10
26186;DHT22;20067;48.764;9.176;2023-06-26T02:30:49;21.40;72.10
26186;DHT22;20067;48.764;9.176;2023-06-26T02:33:15;21.40;72.20
26186;DHT22;20067;48.764;9.176;2023-06-26T02:35:40;21.30;72.60
26186;DHT22;20067;48.764;9.176;2023-06-26T02:38:06;21.40;72.70
26186;DHT22;20067;48.764;9.176;2023-06-26T02:40:32;21.50;71.90
26186;DHT22;20067;48.764;9.176;2023-06-26T02:42:58;21.70;71.40
26186;DHT22;20067;48.764;9.176;2023-06-26T02:45:24;21.70;71.30
26186;DHT22;20067;48.764;9.176;2023-06-26T02:47:50;21.80;71.20
26186;DHT22;20067;48.764;9.176;2023-06-26T02:50:16;22.00;70.70
26186;DHT22;20067;48.764;9.176;2023-06-26T02:52:41;21.90;71.00
26186;DHT22;20067;48.764;9.176;2023-06-26T02:55:07;21.60;71.50
26186;DHT22;20067;48.764;9.176;2023-06-26T02:57:32;21.60;72.10
26186;DHT22;20067;48.764;9.176;2023-06-26T02:59:58;21.50;72.00
26186;DHT22;20067;48.764;9.176;2023-06-26T03:02:24;21.60;71.80
26186;DHT22;20067;48.764;9.176;2023-06-26T03:04:49;21.60;71.90
26186;DHT22;20067;48.764;9.176;2023-06-26T03:07:15;21.80;71.80
26186;DHT22;20067;48.764;9.176;2023-06-26T03:09:41;21.90;71.10
26186;DHT22;20067;48.764;9.176;2023-06-26T03:12:07;21.60;71.60
26186;DHT22;20067;48.764;9.176;2023-06-26T03:14:33;21.30;72.30
26186;DHT22;20067;48.764;9.176;2023-06-26T03:16:59;21.30;72.50
26186;DHT22;20067;48.764;9.176;2023-06-26T03:19:28;21.40;72.50
26186;DHT22;20067;48.764;9.176;2023-06-26T03:21:54;21.60;72.20
26186;DHT22;20067;48.764;9.176;2023-06-26T03:24:20;21.70;71.70
26186;DHT22;20067;48.764;9.176;2023-06-26T03:26:46;21.60;71.90
26186;DHT22;20067;48.764;9.176;2023-06-26T03:29:12;21.50;72.40
26186;DHT22;20067;48.764;9.176;2023-06-26T03:31:37;21.50;72.50
26186;DHT22;20067;48.764;9.176;2023-06-26T03:34:03;21.60;72.00
26186;DHT22;20067;48.764;9.176;2023-06-26T03:36:29;21.50;72.10
26186;DHT22;20067;48.764;9.176;2023-06-26T03:38:55;21.40;72.60
26186;DHT22;20067;48.764;9.176;2023-06-26T03:41:23;21.40;72.80
26186;DHT22;20067;48.764;9.176;2023-06-26T03:43:48;21.60;72.50
26186;DHT22;20067;48.764;9.176;2023-06-26T03:46:14;21.70;72.10
26186;DHT22;20067;48.764;9.176;2023-06-26T03:48:40;21.70;72.60
26186;DHT22;20067;48.764;9.176;2023-06-26T03:51:07;21.60;72.30
26186;DHT22;20067;48.764;9.176;2023-06-26T03:53:33;21.50;72.90
26186;DHT22;20067;48.764;9.176;2023-06-26T03:55:59;21.50;73.00
26186;DHT22;20067;48.764;9.176;2023-06-26T03:58:25;21.50;72.60
26186;DHT22;20067;48.764;9.176;2023-06-26T04:00:51;21.60;72.70
26186;DHT22;20067;48.764;9.176;2023-06-26T04:03:16;21.60;72.50
26186;DHT22;20067;48.764;9.176;2023-06-26T04:05:42;21.70;72.20
26186;DHT22;20067;48.764;9.176;2023-06-26T04:08:08;21.50;72.70
26186;DHT22;20067;48.764;9.176;2023-06-26T04:10:34;21.40;72.90
26186;DHT22;20067;48.764;9.176;2023-06-26T04:13:01;21.30;73.40
26186;DHT22;20067;48.764;9.176;2023-06-26T04:15:27;21.50;73.10
26186;DHT22;20067;48.764;9.176;2023-06-26T04:17:53;21.40;73.40
26186;DHT22;20067;48.764;9.176;2023-06-26T04:20:19;21.60;72.90
26186;DHT22;20067;48.764;9.176;2023-06-26T04:22:44;21.60;73.50
26186;DHT22;20067;48.764;9.176;2023-06-26T04:25:10;21.60;72.90
26186;DHT22;20067;48.764;9.176;2023-06-26T04:27:37;21.50;73.30
26186;DHT22;20067;48.764;9.176;2023-06-26T04:30:03;21.60;73.80
26186;DHT22;20067;48.764;9.176;2023-06-26T04:32:29;21.80;72.80
26186;DHT22;20067;48.764;9.176;2023-06-26T04:34:54;21.70;72.80
26186;DHT22;20067;48.764;9.176;2023-06-26T04:37:20;21.90;73.70
26186;DHT22;20067;48.764;9.176;2023-06-26T04:39:45;21.90;72.90
26186;DHT22;20067;48.764;9.176;2023-06-26T04:42:11;21.70;73.70
26186;DHT22;20067;48.764;9.176;2023-06-26T04:44:37;21.60;73.50
26186;DHT22;20067;48.764;9.176;2023-06-26T04:47:03;21.60;73.60
26186;DHT22;20067;48.764;9.176;2023-06-26T04:49:29;21.60;74.20
26186;DHT22;20067;48.764;9.176;2023-06-26T04:51:56;21.90;73.70
26186;DHT22;20067;48.764;9.176;2023-06-26T04:54:22;22.00;73.30
26186;DHT22;20067;48.764;9.176;2023-06-26T04:56:48;22.20;72.60
26186;DHT22;20067;48.764;9.176;2023-06-26T04:59:13;22.10;73.10
26186;DHT22;20067;48.764;9.176;2023-06-26T05:01:40;22.00;72.70
26186;DHT22;20067;48.764;9.176;2023-06-26T05:04:06;22.10;74.10
26186;DHT22;20067;48.764;9.176;2023-06-26T05:06:31;22.10;73.10
26186;DHT22;20067;48.764;9.176;2023-06-26T05:08:57;22.00;72.90
26186;DHT22;20067;48.764;9.176;2023-06-26T05:11:24;22.00;73.30
26186;DHT22;20067;48.764;9.176;2023-06-26T05:13:50;21.90;73.00
26186;DHT22;20067;48.764;9.176;2023-06-26T05:16:15;22.10;73.10
26186;DHT22;20067;48.764;9.176;2023-06-26T05:18:41;22.20;74.60
26186;DHT22;20067;48.764;9.176;2023-06-26T05:21:06;22.30;72.80
26186;DHT22;20067;48.764;9.176;2023-06-26T05:23:33;22.50;73.70
26186;DHT22;20067;48.764;9.176;2023-06-26T05:26:03;22.80;72.20
26186;DHT22;20067;48.764;9.176;2023-06-26T05:28:29;22.50;72.10
26186;DHT22;20067;48.764;9.176;2023-06-26T05:30:57;22.70;73.30
26186;DHT22;20067;48.764;9.176;2023-06-26T05:33:24;22.60;71.50
26186;DHT22;20067;48.764;9.176;2023-06-26T05:35:54;22.80;74.00
26186;DHT22;20067;48.764;9.176;2023-06-26T05:38:20;23.00;71.60
26186;DHT22;20067;48.764;9.176;2023-06-26T05:40:47;22.90;71.20
26186;DHT22;20067;48.764;9.176;2023-06-26T05:43:13;23.00;73.30
26186;DHT22;20067;48.764;9.176;2023-06-26T05:45:39;23.40;70.90
26186;DHT22;20067;48.764;9.176;2023-06-26T05:48:05;23.30;70.70
26186;DHT22;20067;48.764;9.176;2023-06-26T05:50:31;23.40;70.80
26186;DHT22;20067;48.764;9.176;2023-06-26T05:52:57;23.60;72.70
26186;DHT22;20067;48.764;9.176;2023-06-26T05:55:23;23.80;69.60
26186;DHT22;20067;48.764;9.176;2023-06-26T05:57:50;23.90;71.70
26186;DHT22;20067;48.764;9.176;2023-06-26T06:00:16;23.90;70.70
26186;DHT22;20067;48.764;9.176;2023-06-26T06:02:42;24.10;69.90
26186;DHT22;20067;48.764;9.176;2023-06-26T06:05:09;24.00;70.10
26186;DHT22;20067;48.764;9.176;2023-06-26T06:07:35;24.00;70.50
26186;DHT22;20067;48.764;9.176;2023-06-26T06:10:02;24.10;68.70
26186;DHT22;20067;48.764;9.176;2023-06-26T06:12:28;24.30;70.40
26186;DHT22;20067;48.764;9.176;2023-06-26T06:14:55;24.40;70.40
26186;DHT22;20067;48.764;9.176;2023-06-26T06:17:21;24.40;67.90
26186;DHT22;20067;48.764;9.176;2023-06-26T06:19:46;24.60;67.90
26186;DHT22;20067;48.764;9.176;2023-06-26T06:22:12;24.70;67.70
26186;DHT22;20067;48.764;9.176;2023-06-26T06:24:37;24.60;67.40
26186;DHT22;20067;48.764;9.176;2023-06-26T06:27:03;24.80;68.30
26186;DHT22;20067;48.764;9.176;2023-06-26T06:29:29;24.90;68.60
26186;DHT22;20067;48.764;9.176;2023-06-26T06:31:55;25.00;66.80
26186;DHT22;20067;48.764;9.176;2023-06-26T06:34:21;25.10;67.10
26186;DHT22;20067;48.764;9.176;2023-06-26T06:36:46;25.30;68.60
26186;DHT22;20067;48.764;9.176;2023-06-26T06:39:12;25.40;65.00
26186;DHT22;20067;48.764;9.176;2023-06-26T06:41:38;25.50;66.50
26186;DHT22;20067;48.764;9.176;2023-06-26T06:44:03;25.50;65.80
26186;DHT22;20067;48.764;9.176;2023-06-26T06:46:29;25.60;65.80
26186;DHT22;20067;48.764;9.176;2023-06-26T06:48:55;25.70;65.90
26186;DHT22;20067;48.764;9.176;2023-06-26T06:51:22;25.80;65.20
26186;DHT22;20067;48.764;9.176;2023-06-26T06:53:47;25.90;65.50
26186;DHT22;20067;48.764;9.176;2023-06-26T06:56:13;25.80;67.30
26186;DHT22;20067;48.764;9.176;2023-06-26T06:58:38;25.90;66.70
26186;DHT22;20067;48.764;9.176;2023-06-26T07:01:08;25.90;66.00
26186;DHT22;20067;48.764;9.176;2023-06-26T07:03:34;25.80;65.60
26186;DHT22;20067;48.764;9.176;2023-06-26T07:06:01;25.90;65.00
26186;DHT22;20067;48.764;9.176;2023-06-26T07:08:26;26.00;66.40
26186;DHT22;20067;48.764;9.176;2023-06-26T07:10:52;26.40;64.60
26186;DHT22;20067;48.764;9.176;2023-06-26T07:13:18;26.30;65.40
26186;DHT22;20067;48.764;9.176;2023-06-26T07:15:45;26.40;63.50
26186;DHT22;20067;48.764;9.176;2023-06-26T07:18:14;26.50;63.30
26186;DHT22;20067;48.764;9.176;2023-06-26T07:20:40;26.70;62.30
26186;DHT22;20067;48.764;9.176;2023-06-26T07:23:05;26.80;62.20
26186;DHT22;20067;48.764;9.176;2023-06-26T07:25:31;26.70;64.10
26186;DHT22;20067;48.764;9.176;2023-06-26T07:27:57;26.70;64.10
26186;DHT22;20067;48.764;9.176;2023-06-26T07:30:23;26.80;64.20
26186;DHT22;20067;48.764;9.176;2023-06-26T07:32:49;27.10;64.00
26186;DHT22;20067;48.764;9.176;2023-06-26T07:35:15;27.30;62.30
26186;DHT22;20067;48.764;9.176;2023-06-26T07:37:41;27.20;63.30
26186;DHT22;20067;48.764;9.176;2023-06-26T07:40:08;27.30;62.50
26186;DHT22;20067;48.764;9.176;2023-06-26T07:42:34;27.30;64.30
26186;DHT22;20067;48.764;9.176;2023-06-26T07:44:59;27.40;62.50
26186;DHT22;20067;48.764;9.176;2023-06-26T07:47:25;27.50;62.00
26186;DHT22;20067;48.764;9.176;2023-06-26T07:49:51;27.60;62.80
26186;DHT22;20067;48.764;9.176;2023-06-26T07:52:18;27.60;62.70
26186;DHT22;20067;48.764;9.176;2023-06-26T07:54:44;27.60;62.90
26186;DHT22;20067;48.764;9.176;2023-06-26T07:57:10;27.80;63.00
26186;DHT22;20067;48.764;9.176;2023-06-26T07:59:37;28.00;61.30
26186;DHT22;20067;48.764;9.176;2023-06-26T08:02:03;28.10;60.30
26186;DHT22;20067;48.764;9.176;2023-06-26T08:04:30;28.10;60.10
26186;DHT22;20067;48.764;9.176;2023-06-26T08:06:58;28.20;60.30
26186;DHT22;20067;48.764;9.176;2023-06-26T08:09:26;28.40;60.00
26186;DHT22;20067;48.764;9.176;2023-06-26T08:11:52;28.50;59.70
26186;DHT22;20067;48.764;9.176;2023-06-26T08:14:18;28.80;59.80
26186;DHT22;20067;48.764;9.176;2023-06-26T08:16:44;29.20;60.30
26186;DHT22;20067;48.764;9.176;2023-06-26T08:19:11;29.60;57.40
26186;DHT22;20067;48.764;9.176;2023-06-26T08:21:37;29.80;58.30
26186;DHT22;20067;48.764;9.176;2023-06-26T08:24:03;30.10;56.60
26186;DHT22;20067;48.764;9.176;2023-06-26T08:26:29;30.40;56.80
26186;DHT22;20067;48.764;9.176;2023-06-26T08:28:55;30.90;56.50
26186;DHT22;20067;48.764;9.176;2023-06-26T08:31:21;30.40;54.90
26186;DHT22;20067;48.764;9.176;2023-06-26T08:33:47;30.40;55.20
26186;DHT22;20067;48.764;9.176;2023-06-26T08:36:13;30.20;55.70
26186;DHT22;20067;48.764;9.176;2023-06-26T08:38:38;30.50;55.90
26186;DHT22;20067;48.764;9.176;2023-06-26T08:41:07;31.10;56.60
26186;DHT22;20067;48.764;9.176;2023-06-26T08:43:34;30.90;55.00
26186;DHT22;20067;48.764;9.176;2023-06-26T08:46:01;31.50;54.00
26186;DHT22;20067;48.764;9.176;2023-06-26T08:48:31;31.10;54.20
26186;DHT22;20067;48.764;9.176;2023-06-26T08:51:01;30.80;54.10
26186;DHT22;20067;48.764;9.176;2023-06-26T08:53:50;31.10;52.60
26186;DHT22;20067;48.764;9.176;2023-06-26T08:56:18;31.50;52.40
26186;DHT22;20067;48.764;9.176;2023-06-26T08:58:46;31.60;52.90
26186;DHT22;20067;48.764;9.176;2023-06-26T09:01:12;32.10;53.20
26186;DHT22;20067;48.764;9.176;2023-06-26T09:03:38;32.40;53.80
26186;DHT22;20067;48.764;9.176;2023-06-26T09:06:04;31.90;51.50
26186;DHT22;20067;48.764;9.176;2023-06-26T09:08:30;31.20;52.60
26186;DHT22;20067;48.764;9.176;2023-06-26T09:10:55;31.50;54.40
26186;DHT22;20067;48.764;9.176;2023-06-26T09:13:21;31.50;54.00
26186;DHT22;20067;48.764;9.176;2023-06-26T09:15:47;31.90;54.20
26186;DHT22;20067;48.764;9.176;2023-06-26T09:18:13;32.20;51.60
26186;DHT22;20067;48.764;9.176;2023-06-26T09:20:42;31.30;52.20
26186;DHT22;20067;48.764;9.176;2023-06-26T09:23:10;31.00;52.60
26186;DHT22;20067;48.764;9.176;2023-06-26T09:25:40;30.80;52.70
26186;DHT22;20067;48.764;9.176;2023-06-26T09:28:06;30.40;54.20
26186;DHT22;20067;48.764;9.176;2023-06-26T09:30:32;30.20;54.10
26186;DHT22;20067;48.764;9.176;2023-06-26T09:33:13;30.30;54.70
26186;DHT22;20067;48.764;9.176;2023-06-26T09:35:39;30.60;55.00
26186;DHT22;20067;48.764;9.176;2023-06-26T09:38:04;30.90;54.90
26186;DHT22;20067;48.764;9.176;2023-06-26T09:40:31;31.10;53.50
26186;DHT22;20067;48.764;9.176;2023-06-26T09:43:03;31.30;53.00
26186;DHT22;20067;48.764;9.176;2023-06-26T09:45:31;32.10;52.60
26186;DHT22;20067;48.764;9.176;2023-06-26T09:48:00;32.40;50.70
26186;DHT22;20067;48.764;9.176;2023-06-26T09:50:28;32.10;51.00
26186;DHT22;20067;48.764;9.176;2023-06-26T09:52:54;31.40;52.10
26186;DHT22;20067;48.764;9.176;2023-06-26T09:55:20;31.30;52.90
26186;DHT22;20067;48.764;9.176;2023-06-26T09:57:52;32.30;51.80
26186;DHT22;20067;48.764;9.176;2023-06-26T10:00:18;32.80;50.80
26186;DHT22;20067;48.764;9.176;2023-06-26T10:02:44;32.00;52.10
26186;DHT22;20067;48.764;9.176;2023-06-26T10:05:09;31.70;53.10
26186;DHT22;20067;48.764;9.176;2023-06-26T10:07:36;31.40;52.80
26186;DHT22;20067;48.764;9.176;2023-06-26T10:10:05;31.40;53.70
26186;DHT22;20067;48.764;9.176;2023-06-26T10:12:32;30.90;53.90
26186;DHT22;20067;48.764;9.176;2023-06-26T10:14:59;30.50;54.90
26186;DHT22;20067;48.764;9.176;2023-06-26T10:17:34;30.60;55.10
26186;DHT22;20067;48.764;9.176;2023-06-26T10:20:02;30.40;55.80
26186;DHT22;20067;48.764;9.176;2023-06-26T10:22:37;30.50;56.60
26186;DHT22;20067;48.764;9.176;2023-06-26T10:25:06;30.80;55.00
26186;DHT22;20067;48.764;9.176;2023-06-26T10:27:40;31.00;55.90
26186;DHT22;20067;48.764;9.176;2023-06-26T10:30:16;30.80;58.10
26186;DHT22;20067;48.764;9.176;2023-06-26T10:32:43;30.70;56.00
26186;DHT22;20067;48.764;9.176;2023-06-26T10:35:11;30.60;56.20
26186;DHT22;20067;48.764;9.176;2023-06-26T10:37:46;30.30;57.20
26186;DHT22;20067;48.764;9.176;2023-06-26T10:40:14;30.10;57.40
26186;DHT22;20067;48.764;9.176;2023-06-26T10:42:40;30.00;58.00
26186;DHT22;20067;48.764;9.176;2023-06-26T10:45:14;29.90;57.60
26186;DHT22;20067;48.764;9.176;2023-06-26T10:47:41;29.80;58.10
26186;DHT22;20067;48.764;9.176;2023-06-26T10:50:29;29.70;58.40
26186;DHT22;20067;48.764;9.176;2023-06-26T10:55:49;30.00;57.20
26186;DHT22;20067;48.764;9.176;2023-06-26T10:58:41;30.40;57.30
26186;DHT22;20067;48.764;9.176;2023-06-26T11:01:23;31.10;55.50
26186;DHT22;20067;48.764;9.176;2023-06-26T11:06:20;31.70;54.50
26186;DHT22;20067;48.764;9.176;2023-06-26T11:08:53;31.90;54.20
26186;DHT22;20067;48.764;9.176;2023-06-26T11:11:21;32.30;53.50
26186;DHT22;20067;48.764;9.176;2023-06-26T11:13:47;33.30;51.80
26186;DHT22;20067;48.764;9.176;2023-06-26T11:16:14;34.40;49.40
26186;DHT22;20067;48.764;9.176;2023-06-26T11:18:41;33.60;50.20
26186;DHT22;20067;48.764;9.176;2023-06-26T11:21:11;33.00;51.40
26186;DHT22;20067;48.764;9.176;2023-06-26T11:23:39;33.70;50.60
26186;DHT22;20067;48.764;9.176;2023-06-26T11:26:19;35.00;49.30
26186;DHT22;20067;48.764;9.176;2023-06-26T11:28:53;36.60;47.20
26186;DHT22;20067;48.764;9.176;2023-06-26T11:31:34;37.20;45.60
26186;DHT22;20067;48.764;9.176;2023-06-26T11:34:01;36.70;46.00
26186;DHT22;20067;48.764;9.176;2023-06-26T11:36:29;36.60;47.20
26186;DHT22;20067;48.764;9.176;2023-06-26T11:38:59;36.90;46.70
26186;DHT22;20067;48.764;9.176;2023-06-26T11:41:30;37.00;46.00
26186;DHT22;20067;48.764;9.176;2023-06-26T11:44:03;36.30;46.90
26186;DHT22;20067;48.764;9.176;2023-06-26T11:46:30;36.60;46.60
26186;DHT22;20067;48.764;9.176;2023-06-26T11:48:56;37.60;46.00
26186;DHT22;20067;48.764;9.176;2023-06-26T11:51:22;37.00;46.00
26186;DHT22;20067;48.764;9.176;2023-06-26T11:53:48;35.60;48.10
26186;DHT22;20067;48.764;9.176;2023-06-26T11:56:16;34.60;49.50
26186;DHT22;20067;48.764;9.176;2023-06-26T11:59:01;34.60;49.80
26186;DHT22;20067;48.764;9.176;2023-06-26T12:01:39;33.90;51.70
26186;DHT22;20067;48.764;9.176;2023-06-26T12:04:08;33.00;52.70
26186;DHT22;20067;48.764;9.176;2023-06-26T12:06:35;33.70;51.90
26186;DHT22;20067;48.764;9.176;2023-06-26T12:09:04;35.30;49.70
26186;DHT22;20067;48.764;9.176;2023-06-26T12:11:32;36.10;49.40
26186;DHT22;20067;48.764;9.176;2023-06-26T12:13:58;37.00;48.70
26186;DHT22;20067;48.764;9.176;2023-06-26T12:16:24;37.20;48.60
26186;DHT22;20067;48.764;9.176;2023-06-26T12:18:58;36.70;49.00
26186;DHT22;20067;48.764;9.176;2023-06-26T12:24:13;35.60;50.40
26186;DHT22;20067;48.764;9.176;2023-06-26T12:26:45;35.10;52.10
26186;DHT22;20067;48.764;9.176;2023-06-26T12:29:18;34.50;52.70
26186;DHT22;20067;48.764;9.176;2023-06-26T12:31:52;34.40;52.90
26186;DHT22;20067;48.764;9.176;2023-06-26T12:34:20;35.50;50.90
26186;DHT22;20067;48.764;9.176;2023-06-26T12:36:48;37.70;49.50
26186;DHT22;20067;48.764;9.176;2023-06-26T12:39:19;37.80;46.60
26186;DHT22;20067;48.764;9.176;2023-06-26T12:41:49;35.80;49.60
26186;DHT22;20067;48.764;9.176;2023-06-26T12:44:30;36.50;49.20
26186;DHT22;20067;48.764;9.176;2023-06-26T12:47:00;36.60;48.70
26186;DHT22;20067;48.764;9.176;2023-06-26T12:49:49;36.20;49.30
26186;DHT22;20067;48.764;9.176;2023-06-26T12:52:15;37.60;47.00
26186;DHT22;20067;48.764;9.176;2023-06-26T12:54:43;38.00;46.70
26186;DHT22;20067;48.764;9.176;2023-06-26T12:57:09;37.60;47.00
26186;DHT22;20067;48.764;9.176;2023-06-26T12:59:38;37.40;47.40
26186;DHT22;20067;48.764;9.176;2023-06-26T13:02:04;36.00;48.90
26186;DHT22;20067;48.764;9.176;2023-06-26T13:04:30;36.10;50.10
26186;DHT22;20067;48.764;9.176;2023-06-26T13:06:56;36.10;50.00
26186;DHT22;20067;48.764;9.176;2023-06-26T13:09:23;36.10;50.20
26186;DHT22;20067;48.764;9.176;2023-06-26T13:11:51;37.90;46.60
26186;DHT22;20067;48.764;9.176;2023-06-26T13:14:17;37.10;47.10
26186;DHT22;20067;48.764;9.176;2023-06-26T13:16:43;37.90;46.60
26186;DHT22;20067;48.764;9.176;2023-06-26T13:19:09;38.20;45.90
26186;DHT22;20067;48.764;9.176;2023-06-26T13:21:34;38.30;45.80
26186;DHT22;20067;48.764;9.176;2023-06-26T13:24:00;39.20;44.50
26186;DHT22;20067;48.764;9.176;2023-06-26T13:26:26;38.70;45.20
26186;DHT22;20067;48.764;9.176;2023-06-26T13:28:54;38.70;44.60
26186;DHT22;20067;48.764;9.176;2023-06-26T13:31:20;37.80;45.60
26186;DHT22;20067;48.764;9.176;2023-06-26T13:33:46;38.40;45.30
26186;DHT22;20067;48.764;9.176;2023-06-26T13:36:14;37.80;46.10
26186;DHT22;20067;48.764;9.176;2023-06-26T13:38:39;39.00;44.40
26186;DHT22;20067;48.764;9.176;2023-06-26T13:41:05;38.70;43.90
26186;DHT22;20067;48.764;9.176;2023-06-26T13:43:31;38.20;44.60
26186;DHT22;20067;48.764;9.176;2023-06-26T13:45:57;37.90;44.70
26186;DHT22;20067;48.764;9.176;2023-06-26T13:48:23;38.00;45.10
26186;DHT22;20067;48.764;9.176;2023-06-26T13:50:50;37.40;45.00
26186;DHT22;20067;48.764;9.176;2023-06-26T13:53:16;36.70;45.20
26186;DHT22;20067;48.764;9.176;2023-06-26T13:55:41;36.40;45.90
26186;DHT22;20067;48.764;9.176;2023-06-26T13:58:08;36.90;45.30
26186;DHT22;20067;48.764;9.176;2023-06-26T14:00:35;37.40;45.30
26186;DHT22;20067;48.764;9.176;2023-06-26T14:03:02;37.10;44.30
26186;DHT22;20067;48.764;9.176;2023-06-26T14:05:29;37.30;44.30
26186;DHT22;20067;48.764;9.176;2023-06-26T14:07:55;37.10;44.60
26186;DHT22;20067;48.764;9.176;2023-06-26T14:10:21;36.20;45.50
26186;DHT22;20067;48.764;9.176;2023-06-26T14:12:47;36.20;45.50
26186;DHT22;20067;48.764;9.176;2023-06-26T14:15:13;35.90;45.20
26186;DHT22;20067;48.764;9.176;2023-06-26T14:17:39;35.40;46.40
26186;DHT22;20067;48.764;9.176;2023-06-26T14:20:09;35.70;44.50
26186;DHT22;20067;48.764;9.176;2023-06-26T14:22:46;35.20;45.20
26186;DHT22;20067;48.764;9.176;2023-06-26T14:25:12;35.30;45.50
26186;DHT22;20067;48.764;9.176;2023-06-26T14:27:39;35.10;45.60
26186;DHT22;20067;48.764;9.176;2023-06-26T14:30:06;34.30;46.00
26186;DHT22;20067;48.764;9.176;2023-06-26T14:32:33;33.80;46.40
26186;DHT22;20067;48.764;9.176;2023-06-26T14:34:58;33.80;47.30
26186;DHT22;20067;48.764;9.176;2023-06-26T14:37:25;33.30;47.80
26186;DHT22;20067;48.764;9.176;2023-06-26T14:39:51;33.20;48.50
26186;DHT22;20067;48.764;9.176;2023-06-26T14:42:17;32.80;48.90
26186;DHT22;20067;48.764;9.176;2023-06-26T14:44:42;32.90;48.80
26186;DHT22;20067;48.764;9.176;2023-06-26T14:47:08;33.10;49.00
26186;DHT22;20067;48.764;9.176;2023-06-26T14:49:33;33.10;48.80
26186;DHT22;20067;48.764;9.176;2023-06-26T14:51:59;32.90;49.30
26186;DHT22;20067;48.764;9.176;2023-06-26T14:54:25;32.30;49.70
26186;DHT22;20067;48.764;9.176;2023-06-26T14:56:50;32.60;50.30
26186;DHT22;20067;48.764;9.176;2023-06-26T14:59:16;33.00;48.50
26186;DHT22;20067;48.764;9.176;2023-06-26T15:01:42;32.90;48.90
26186;DHT22;20067;48.764;9.176;2023-06-26T15:04:08;32.80;48.90
26186;DHT22;20067;48.764;9.176;2023-06-26T15:06:36;32.90;49.10
26186;DHT22;20067;48.764;9.176;2023-06-26T15:09:03;32.60;49.70
26186;DHT22;20067;48.764;9.176;2023-06-26T15:11:29;32.20;50.60
26186;DHT22;20067;48.764;9.176;2023-06-26T15:13:55;32.50;50.20
26186;DHT22;20067;48.764;9.176;2023-06-26T15:16:21;32.10;50.40
26186;DHT22;20067;48.764;9.176;2023-06-26T15:18:47;31.80;51.40
26186;DHT22;20067;48.764;9.176;2023-06-26T15:21:13;31.70;51.60
26186;DHT22;20067;48.764;9.176;2023-06-26T15:23:38;31.40;51.80
26186;DHT22;20067;48.764;9.176;2023-06-26T15:26:04;31.50;52.10
26186;DHT22;20067;48.764;9.176;2023-06-26T15:28:30;31.40;52.50
26186;DHT22;20067;48.764;9.176;2023-06-26T15:30:55;31.50;51.80
26186;DHT22;20067;48.764;9.176;2023-06-26T15:33:21;31.10;52.90
26186;DHT22;20067;48.764;9.176;2023-06-26T15:35:47;30.90;53.60
26186;DHT22;20067;48.764;9.176;2023-06-26T15:38:12;30.80;51.70
26186;DHT22;20067;48.764;9.176;2023-06-26T15:40:38;30.60;52.00